Time;durP1;ratioP1;P1;durP2;ratioP2;P2;SDS_P1;SDS_P2;PMS_P1;PMS_P2;Temp;Humidity;BMP_temperature;BMP_pressure;BME280_temperature;BME280_humidity;BME280_pressure;Samples;Min_cycle;Max_cycle;Signal;HPM_P1;HPM_P2
2024/01/07 00:00:11;;;;;;;0.50;0.50;;;;;;;;;;6277218;28;20188;-68
2024/01/07 00:03:12;;;;;;;0.47;0.47;;;;;;;;;;6293652;28;20196;-67
2024/01/07 00:06:13;;;;;;;0.50;0.50;;;;;;;;;;6278403;28;20209;-67
2024/01/07 00:09:14;;;;;;;0.50;0.40;;;;;;;;;;6280494;28;20287;-67
2024/01/07 00:12:15;;;;;;;0.50;0.50;;;;;;;;;;6283074;28;20219;-68
2024/01/07 00:15:16;;;;;;;0.60;0.57;;;;;;;;;;6304935;28;20215;-68
2024/01/07 00:18:17;;;;;;;0.50;0.50;;;;;;;;;;6301672;28;20200;-68
2024/01/07 00:21:18;;;;;;;0.50;0.50;;;;;;;;;;6284424;28;20184;-68
2024/01/07 00:24:19;;;;;;;0.50;0.50;;;;;;;;;;6274130;28;20193;-68
2024/01/07 00:27:20;;;;;;;0.40;0.40;;;;;;;;;;6273755;28;20215;-68
2024/01/07 00:30:22;;;;;;;0.40;0.40;;;;;;;;;;6286997;28;20216;-68
2024/01/07 00:33:23;;;;;;;0.33;0.33;;;;;;;;;;6287282;28;20250;-67
2024/01/07 00:36:24;;;;;;;0.70;0.60;;;;;;;;;;6279401;28;20193;-68
2024/01/07 00:39:25;;;;;;;0.40;0.40;;;;;;;;;;6287512;28;20192;-68
2024/01/07 00:42:26;;;;;;;0.40;0.40;;;;;;;;;;6284800;28;20189;-68
2024/01/07 00:45:27;;;;;;;0.50;0.40;;;;;;;;;;6276927;28;20219;-69
2024/01/07 00:48:28;;;;;;;0.40;0.40;;;;;;;;;;6287926;28;20196;-68
2024/01/07 00:51:29;;;;;;;0.50;0.50;;;;;;;;;;6288746;28;20208;-68
2024/01/07 00:54:30;;;;;;;0.40;0.40;;;;;;;;;;6306157;28;20194;-68
2024/01/07 00:57:31;;;;;;;0.53;0.53;;;;;;;;;;6284667;28;20240;-68
2024/01/07 01:00:32;;;;;;;0.67;0.50;;;;;;;;;;6290268;28;20189;-68
2024/01/07 01:03:33;;;;;;;1.13;0.50;;;;;;;;;;6285394;28;20260;-68
2024/01/07 01:06:34;;;;;;;1.60;0.53;;;;;;;;;;6287293;28;20214;-68
2024/01/07 01:09:35;;;;;;;0.43;0.43;;;;;;;;;;6296589;28;20188;-69
2024/01/07 01:12:36;;;;;;;0.40;0.40;;;;;;;;;;6297707;28;20204;-69
2024/01/07 01:15:37;;;;;;;0.60;0.60;;;;;;;;;;6282963;28;20196;-68
2024/01/07 01:18:38;;;;;;;0.50;0.50;;;;;;;;;;6295048;28;20597;-69
2024/01/07 01:21:39;;;;;;;1.50;0.57;;;;;;;;;;6290044;28;20192;-69
2024/01/07 01:24:40;;;;;;;0.40;0.40;;;;;;;;;;6286379;28;20191;-70
2024/01/07 01:27:42;;;;;;;0.50;0.43;;;;;;;;;;6289414;28;21109;-69
2024/01/07 01:30:43;;;;;;;0.40;0.40;;;;;;;;;;6281828;28;20189;-69
2024/01/07 01:33:44;;;;;;;0.40;0.40;;;;;;;;;;6276013;28;20189;-69
2024/01/07 01:36:45;;;;;;;0.40;0.40;;;;;;;;;;6273849;28;20200;-69
2024/01/07 01:39:46;;;;;;;0.40;0.40;;;;;;;;;;6288863;28;20283;-69
2024/01/07 01:42:48;;;;;;;0.47;0.47;;;;;;;;;;6279466;28;20188;-69
2024/01/07 01:45:49;;;;;;;0.40;0.40;;;;;;;;;;6289043;28;20212;-69
2024/01/07 01:48:50;;;;;;;0.40;0.40;;;;;;;;;;6280796;28;20185;-68
2024/01/07 01:51:52;;;;;;;0.50;0.50;;;;;;;;;;6292615;28;20261;-69
2024/01/07 01:54:54;;;;;;;0.43;0.43;;;;;;;;;;6281697;28;20257;-69
2024/01/07 01:57:56;;;;;;;1.93;0.50;;;;;;;;;;6274120;28;20236;-69
2024/01/07 02:00:57;;;;;;;0.43;0.40;;;;;;;;;;6257045;28;20284;-69
2024/01/07 02:03:58;;;;;;;0.93;0.90;;;;;;;;;;6238616;28;20249;-69
2024/01/07 02:06:59;;;;;;;0.73;0.40;;;;;;;;;;6260800;28;20263;-69
2024/01/07 02:10:00;;;;;;;0.60;0.60;;;;;;;;;;6258983;28;20216;-69
2024/01/07 02:13:01;;;;;;;0.43;0.43;;;;;;;;;;6264771;28;20247;-69
2024/01/07 02:16:03;;;;;;;0.50;0.40;;;;;;;;;;6270949;28;20201;-69
2024/01/07 02:19:05;;;;;;;0.40;0.40;;;;;;;;;;6263365;28;20280;-69
2024/01/07 02:22:06;;;;;;;0.50;0.50;;;;;;;;;;6264146;28;20201;-69
2024/01/07 02:25:08;;;;;;;0.67;0.50;;;;;;;;;;6259197;28;20251;-69
2024/01/07 02:28:09;;;;;;;0.47;0.47;;;;;;;;;;6262228;28;20259;-69
2024/01/07 02:31:10;;;;;;;0.40;0.40;;;;;;;;;;6262553;28;20650;-69
2024/01/07 02:34:12;;;;;;;0.47;0.47;;;;;;;;;;6256123;28;20190;-69
2024/01/07 02:37:13;;;;;;;0.50;0.40;;;;;;;;;;6251893;28;20200;-70
2024/01/07 02:40:14;;;;;;;0.63;0.50;;;;;;;;;;6268118;28;20190;-69
2024/01/07 02:43:15;;;;;;;0.53;0.50;;;;;;;;;;6257084;28;20217;-69
2024/01/07 02:46:16;;;;;;;0.63;0.57;;;;;;;;;;6255387;28;20214;-70
2024/01/07 02:49:17;;;;;;;0.50;0.50;;;;;;;;;;6278196;28;20214;-69
2024/01/07 02:52:18;;;;;;;0.50;0.50;;;;;;;;;;6261586;28;20194;-69
2024/01/07 02:55:19;;;;;;;0.77;0.70;;;;;;;;;;6264018;28;20188;-69
2024/01/07 02:58:20;;;;;;;0.70;0.50;;;;;;;;;;6271043;28;20315;-69
2024/01/07 03:01:24;;;;;;;0.40;0.40;;;;;;;;;;6277580;28;20224;-69
2024/01/07 03:04:25;;;;;;;0.40;0.40;;;;;;;;;;6289267;28;20201;-69
2024/01/07 03:07:26;;;;;;;0.60;0.60;;;;;;;;;;6276524;28;20223;-69
2024/01/07 03:10:27;;;;;;;0.40;0.40;;;;;;;;;;6300849;28;20192;-69
2024/01/07 03:13:28;;;;;;;0.50;0.50;;;;;;;;;;6286324;28;20202;-69
2024/01/07 03:16:29;;;;;;;0.50;0.50;;;;;;;;;;6280552;28;20193;-69
2024/01/07 03:19:30;;;;;;;0.40;0.40;;;;;;;;;;6283976;28;20281;-69
2024/01/07 03:22:31;;;;;;;0.43;0.40;;;;;;;;;;6276797;28;20204;-70
2024/01/07 03:25:33;;;;;;;0.90;0.50;;;;;;;;;;6267591;28;20330;-69
2024/01/07 03:28:34;;;;;;;0.60;0.60;;;;;;;;;;6272403;28;20197;-70
2024/01/07 03:31:35;;;;;;;0.67;0.63;;;;;;;;;;6287073;28;20620;-69
2024/01/07 03:34:36;;;;;;;0.53;0.53;;;;;;;;;;6295277;28;20211;-69
2024/01/07 03:37:37;;;;;;;0.60;0.60;;;;;;;;;;6287691;28;20319;-69
2024/01/07 03:40:38;;;;;;;0.57;0.57;;;;;;;;;;6292581;28;20283;-70
2024/01/07 03:43:39;;;;;;;0.50;0.50;;;;;;;;;;6268718;28;20282;-69
2024/01/07 03:46:40;;;;;;;0.60;0.60;;;;;;;;;;6277401;28;20217;-69
2024/01/07 03:49:41;;;;;;;0.93;0.57;;;;;;;;;;6281808;28;20258;-69
2024/01/07 03:52:42;;;;;;;0.70;0.53;;;;;;;;;;6265786;28;20196;-69
2024/01/07 03:55:43;;;;;;;0.67;0.67;;;;;;;;;;6298353;28;20192;-69
2024/01/07 03:58:44;;;;;;;0.60;0.50;;;;;;;;;;6297661;28;20232;-69
2024/01/07 04:01:45;;;;;;;0.50;0.50;;;;;;;;;;6278424;28;20211;-69
2024/01/07 04:04:46;;;;;;;0.50;0.50;;;;;;;;;;6268174;28;20216;-69
2024/01/07 04:07:47;;;;;;;2.13;0.60;;;;;;;;;;6268973;28;20221;-69
2024/01/07 04:10:49;;;;;;;0.40;0.40;;;;;;;;;;6279045;28;20196;-69
2024/01/07 04:13:50;;;;;;;0.73;0.47;;;;;;;;;;6297806;28;20249;-69
2024/01/07 04:16:51;;;;;;;0.50;0.50;;;;;;;;;;6277406;28;20219;-69
2024/01/07 04:19:53;;;;;;;0.70;0.70;;;;;;;;;;6270379;28;20260;-69
2024/01/07 04:22:54;;;;;;;0.60;0.60;;;;;;;;;;6284859;28;20188;-69
2024/01/07 04:25:55;;;;;;;0.63;0.63;;;;;;;;;;6278595;28;20219;-69
2024/01/07 04:28:56;;;;;;;0.40;0.40;;;;;;;;;;6286112;28;20196;-69
2024/01/07 04:31:57;;;;;;;0.60;0.60;;;;;;;;;;6277824;28;20196;-69
2024/01/07 04:34:58;;;;;;;0.50;0.50;;;;;;;;;;6281547;28;20192;-69
2024/01/07 04:37:59;;;;;;;0.60;0.53;;;;;;;;;;6283321;28;20197;-69
2024/01/07 04:41:00;;;;;;;0.67;0.57;;;;;;;;;;6277438;28;20219;-69
2024/01/07 04:44:01;;;;;;;0.83;0.70;;;;;;;;;;6296142;28;20205;-69
2024/01/07 04:47:02;;;;;;;0.50;0.50;;;;;;;;;;6280451;28;20204;-69
2024/01/07 04:50:04;;;;;;;0.67;0.60;;;;;;;;;;6277161;28;20206;-69
2024/01/07 04:53:05;;;;;;;0.67;0.60;;;;;;;;;;6297284;28;20189;-69
2024/01/07 04:56:06;;;;;;;0.67;0.47;;;;;;;;;;6278803;28;20193;-69
2024/01/07 04:59:07;;;;;;;0.40;0.40;;;;;;;;;;6292867;28;20233;-69
2024/01/07 05:02:08;;;;;;;0.40;0.40;;;;;;;;;;6267574;28;20189;-69
2024/01/07 05:05:09;;;;;;;1.07;0.60;;;;;;;;;;6289340;28;20835;-68
2024/01/07 05:08:10;;;;;;;0.87;0.60;;;;;;;;;;6258271;28;20316;-68
2024/01/07 05:11:11;;;;;;;1.07;0.67;;;;;;;;;;6299770;28;20184;-69
2024/01/07 05:14:13;;;;;;;0.67;0.60;;;;;;;;;;6281918;28;20186;-68
2024/01/07 05:17:13;;;;;;;0.50;0.40;;;5.50;99.90;;;;;;6287443;28;20185;-69
2024/01/07 05:20:16;;;;;;;0.40;0.40;;;3.90;95.30;;;;;;6271642;28;20227;-68
2024/01/07 05:23:17;;;;;;;0.63;0.53;;;3.90;93.90;;;;;;6297628;28;20186;-68
2024/01/07 05:26:18;;;;;;;0.50;0.50;;;3.80;94.40;;;;;;6269550;28;20262;-69
2024/01/07 05:29:19;;;;;;;0.60;0.57;;;3.80;95.80;;;;;;6287428;28;20231;-69
2024/01/07 05:32:19;;;;;;;0.90;0.70;;;3.70;96.40;;;;;;6280172;28;20277;-69
2024/01/07 05:35:20;;;;;;;1.00;0.60;;;3.70;96.40;;;;;;6279758;28;20275;-69
2024/01/07 05:38:21;;;;;;;0.50;0.50;;;3.70;95.60;;;;;;6267567;28;20200;-68
2024/01/07 05:41:22;;;;;;;0.60;0.47;;;3.70;94.80;;;;;;6256065;28;20657;-69
2024/01/07 05:44:22;;;;;;;0.47;0.47;;;3.70;96.40;;;;;;6277026;28;20197;-68
2024/01/07 05:47:23;;;;;;;0.47;0.47;;;3.70;95.20;;;;;;6265634;28;20304;-68
2024/01/07 05:50:24;;;;;;;0.50;0.50;;;3.70;95.10;;;;;;6264383;28;20182;-68
2024/01/07 05:53:24;;;;;;;0.40;0.40;;;3.60;95.60;;;;;;6255817;28;20265;-69
2024/01/07 05:56:25;;;;;;;0.63;0.40;;;3.60;95.80;;;;;;6273259;28;20197;-68
2024/01/07 05:59:26;;;;;;;0.63;0.63;;;3.60;96.20;;;;;;6245579;28;20249;-68
2024/01/07 06:02:27;;;;;;;0.57;0.57;;;3.60;95.80;;;;;;6252159;28;20272;-69
2024/01/07 06:05:27;;;;;;;1.60;0.73;;;3.60;95.30;;;;;;6248269;28;20189;-69
2024/01/07 06:08:28;;;;;;;0.53;0.50;;;3.60;95.30;;;;;;6248622;28;20269;-68
2024/01/07 06:11:29;;;;;;;1.17;0.80;;;3.60;95.30;;;;;;6250993;28;20197;-68
2024/01/07 06:14:30;;;;;;;0.60;0.60;;;3.60;96.00;;;;;;6244713;28;20284;-68
2024/01/07 06:17:30;;;;;;;0.60;0.50;;;3.60;96.40;;;;;;6241759;28;20204;-68
2024/01/07 06:20:31;;;;;;;0.40;0.40;;;3.60;95.90;;;;;;6249060;28;20206;-68
2024/01/07 06:23:35;;;;;;;0.60;0.60;;;3.60;95.40;;;;;;6279821;28;20201;-68
2024/01/07 06:26:36;;;;;;;0.50;0.50;;;3.60;96.00;;;;;;6256062;28;20229;-68
2024/01/07 06:29:37;;;;;;;0.80;0.73;;;3.60;94.60;;;;;;6265627;28;20198;-68
2024/01/07 06:32:37;;;;;;;0.40;0.40;;;3.60;95.40;;;;;;6252558;28;20206;-68
2024/01/07 06:35:38;;;;;;;0.73;0.60;;;3.60;94.70;;;;;;6251595;28;20194;-69
2024/01/07 06:38:39;;;;;;;0.50;0.50;;;3.60;95.00;;;;;;6230150;28;20194;-68
2024/01/07 06:41:39;;;;;;;0.43;0.43;;;3.50;95.00;;;;;;6238038;28;20189;-70
2024/01/07 06:44:40;;;;;;;0.50;0.50;;;3.50;95.20;;;;;;6261273;28;20185;-68
2024/01/07 06:47:41;;;;;;;0.57;0.57;;;;;;;;;;6240145;28;20218;-70
2024/01/07 06:50:43;;;;;;;0.30;0.30;;;;;;;;;;6270561;28;20257;-69
2024/01/07 06:53:44;;;;;;;1.03;0.63;;;;;;;;;;6252446;28;20197;-70
2024/01/07 06:56:45;;;;;;;1.00;0.70;;;;;;;;;;6257205;28;20224;-67
2024/01/07 06:59:47;;;;;;;0.50;0.50;;;;;;;;;;6297423;28;20228;-67
2024/01/07 07:02:48;;;;;;;0.93;0.60;;;;;;;;;;6290323;28;20260;-69
2024/01/07 07:05:49;;;;;;;1.10;0.60;;;;;;;;;;6288215;28;20222;-67
2024/01/07 07:08:50;;;;;;;0.57;0.57;;;;;;;;;;6280895;28;20193;-67
2024/01/07 07:11:51;;;;;;;0.50;0.50;;;;;;;;;;6296919;28;20705;-68
2024/01/07 07:14:52;;;;;;;0.50;0.50;;;;;;;;;;6289288;28;20195;-68
2024/01/07 07:17:53;;;;;;;0.50;0.50;;;;;;;;;;6287978;28;20188;-71
2024/01/07 07:20:54;;;;;;;1.07;0.63;;;;;;;;;;6284522;28;20192;-68
2024/01/07 07:23:55;;;;;;;1.07;0.60;;;;;;;;;;6280267;28;20184;-66
2024/01/07 07:26:56;;;;;;;0.63;0.60;;;;;;;;;;6289430;28;20212;-67
2024/01/07 07:29:57;;;;;;;1.53;0.60;;;;;;;;;;6285118;28;20189;-68
2024/01/07 07:32:58;;;;;;;0.40;0.40;;;;;;;;;;6282664;28;20192;-67
2024/01/07 07:35:59;;;;;;;0.67;0.50;;;;;;;;;;6286077;28;20235;-69
2024/01/07 07:39:00;;;;;;;0.60;0.40;;;;;;;;;;6302153;28;20188;-68
2024/01/07 07:42:01;;;;;;;2.80;0.80;;;;;;;;;;6299762;28;20184;-68
2024/01/07 07:45:03;;;;;;;1.20;0.70;;;;;;;;;;6278559;28;20280;-69
2024/01/07 07:48:05;;;;;;;0.90;0.70;;;;;;;;;;6304625;28;20212;-67
2024/01/07 07:51:06;;;;;;;4.33;2.80;;;;;;;;;;6301085;28;20200;-68
2024/01/07 07:54:07;;;;;;;0.70;0.70;;;;;;;;;;6286992;28;20745;-68
2024/01/07 07:57:08;;;;;;;1.17;1.00;;;;;;;;;;6302626;28;20227;-67
2024/01/07 08:00:12;;;;;;;0.70;0.70;;;;;;;;;;6288458;28;20204;-67
2024/01/07 08:03:13;;;;;;;1.77;0.70;;;;;;;;;;6283117;28;20269;-67
2024/01/07 08:06:14;;;;;;;1.03;0.70;;;;;;;;;;6294663;28;20215;-68
2024/01/07 08:09:15;;;;;;;0.70;0.70;;;;;;;;;;6305301;28;20218;-69
2024/01/07 08:12:16;;;;;;;0.60;0.60;;;;;;;;;;6289018;28;20245;-69
2024/01/07 08:15:17;;;;;;;0.60;0.53;;;;;;;;;;6285570;28;20227;-68
2024/01/07 08:18:18;;;;;;;0.70;0.60;;;;;;;;;;6276591;28;20288;-68
2024/01/07 08:21:20;;;;;;;1.27;0.70;;;;;;;;;;6269281;28;20193;-68
2024/01/07 08:24:21;;;;;;;1.80;1.10;;;;;;;;;;6268969;28;20250;-67
2024/01/07 08:27:22;;;;;;;0.77;0.50;;;;;;;;;;6284189;28;20222;-68
2024/01/07 08:30:23;;;;;;;1.07;0.60;;;;;;;;;;6289554;28;20180;-68
2024/01/07 08:33:25;;;;;;;0.40;0.33;;;;;;;;;;6293220;28;20245;-68
2024/01/07 08:36:26;;;;;;;0.40;0.40;;;;;;;;;;6286658;28;20242;-68
2024/01/07 08:39:28;;;;;;;0.87;0.50;;;;;;;;;;6286754;28;20205;-69
2024/01/07 08:42:32;;;;;;;0.60;0.60;;;;;;;;;;6302586;28;20196;-68
2024/01/07 08:45:33;;;;;;;1.77;0.67;;;;;;;;;;6285663;28;20321;-67
2024/01/07 08:48:34;;;;;;;0.70;0.70;;;;;;;;;;6283304;28;20224;-68
2024/01/07 08:51:35;;;;;;;0.50;0.50;;;;;;;;;;6283844;28;20222;-68
2024/01/07 08:54:36;;;;;;;0.50;0.50;;;;;;;;;;6287517;28;20657;-67
2024/01/07 08:57:38;;;;;;;1.20;0.60;;;;;;;;;;6309690;28;20247;-67
2024/01/07 09:00:39;;;;;;;0.53;0.53;;;;;;;;;;6285398;28;20197;-68
2024/01/07 09:03:41;;;;;;;0.50;0.50;;;;;;;;;;6289645;28;20204;-67
2024/01/07 09:06:42;;;;;;;0.67;0.53;;;;;;;;;;6288083;28;20212;-68
2024/01/07 09:09:43;;;;;;;0.70;0.57;;;;;;;;;;6298813;28;20215;-68
2024/01/07 09:12:44;;;;;;;0.63;0.53;;;;;;;;;;6295724;28;20195;-68
2024/01/07 09:15:45;;;;;;;0.60;0.60;;;;;;;;;;6285300;28;20194;-68
2024/01/07 09:18:46;;;;;;;0.80;0.80;;;;;;;;;;6304289;28;20189;-68
2024/01/07 09:21:47;;;;;;;1.67;0.77;;;;;;;;;;6287350;28;20188;-68
2024/01/07 09:24:48;;;;;;;1.20;0.83;;;;;;;;;;6287388;28;20196;-68
2024/01/07 09:27:49;;;;;;;1.30;0.70;;;;;;;;;;6275621;28;20285;-68
2024/01/07 09:30:51;;;;;;;1.00;0.90;;;;;;;;;;6298515;28;20188;-68
2024/01/07 09:33:52;;;;;;;0.93;0.77;;;;;;;;;;6298204;28;20188;-68
2024/01/07 09:36:53;;;;;;;0.70;0.50;;;;;;;;;;6278192;28;20200;-68
2024/01/07 09:39:54;;;;;;;1.27;0.70;;;;;;;;;;6286326;28;20206;-68
2024/01/07 09:42:56;;;;;;;1.00;0.90;;;;;;;;;;6288134;28;20204;-68
2024/01/07 09:45:58;;;;;;;0.53;0.53;;;;;;;;;;6278073;28;20200;-68
2024/01/07 09:48:59;;;;;;;0.60;0.60;;;;;;;;;;6292857;28;20279;-68
2024/01/07 09:52:01;;;;;;;1.13;0.70;;;;;;;;;;6283855;28;20193;-68
2024/01/07 09:55:03;;;;;;;0.70;0.70;;;;;;;;;;6269042;28;20196;-68
2024/01/07 09:58:04;;;;;;;0.70;0.70;;;;;;;;;;6292705;28;20333;-68
2024/01/07 10:01:06;;;;;;;0.73;0.70;;;;;;;;;;6280507;28;20238;-68
2024/01/07 10:04:07;;;;;;;0.93;0.73;;;;;;;;;;6282928;28;20199;-68
2024/01/07 10:07:07;;;;;;;0.80;0.70;;;3.50;96.00;;;;;;6299792;28;20204;-68
2024/01/07 10:10:15;;;;;;;0.73;0.53;;;3.90;83.50;;;;;;6281067;28;20278;-68
2024/01/07 10:13:16;;;;;;;0.73;0.73;;;4.00;81.90;;;;;;6273685;28;20200;-68
2024/01/07 10:16:17;;;;;;;0.90;0.70;;;4.10;81.20;;;;;;6257212;28;20204;-68
2024/01/07 10:19:21;;;;;;;0.93;0.90;;;4.10;81.00;;;;;;6302926;28;20278;-68
2024/01/07 10:22:21;;;;;;;0.70;0.70;;;4.10;80.40;;;;;;6279033;28;20227;-68
2024/01/07 10:25:22;;;;;;;0.60;0.60;;;4.10;79.70;;;;;;6271631;28;20188;-68
2024/01/07 10:28:23;;;;;;;0.80;0.70;;;4.10;79.40;;;;;;6263263;28;20212;-68
2024/01/07 10:31:24;;;;;;;0.83;0.80;;;4.20;79.60;;;;;;6276398;28;20219;-68
2024/01/07 10:34:28;;;;;;;0.60;0.60;;;4.10;81.30;;;;;;6283952;28;20279;-68
2024/01/07 10:37:29;;;;;;;0.57;0.50;;;4.10;79.80;;;;;;6301223;28;20228;-68
2024/01/07 10:40:33;;;;;;;0.63;0.63;;;4.10;81.50;;;;;;6268068;28;20203;-68
2024/01/07 10:43:38;;;;;;;1.20;0.80;;;4.20;81.20;;;;;;6268991;28;20189;-68
2024/01/07 10:46:40;;;;;;;1.03;0.60;;;4.10;81.40;;;;;;6292891;28;20209;-68
2024/01/07 10:49:44;;;;;;;1.13;0.70;;;4.20;80.30;;;;;;6286363;28;20187;-68
2024/01/07 10:52:52;;;;;;;0.63;0.63;;;4.20;80.10;;;;;;6306048;28;20381;-68
2024/01/07 10:56:03;;;;;;;1.43;0.80;;;4.20;80.00;;;;;;6273327;28;20189;-68
2024/01/07 10:59:04;;;;;;;1.13;0.90;;;4.20;81.80;;;;;;6300296;28;20224;-68
2024/01/07 11:02:05;;;;;;;0.87;0.87;;;4.20;82.70;;;;;;6259949;28;20187;-68
2024/01/07 11:05:16;;;;;;;1.33;0.70;;;4.20;84.30;;;;;;6264989;28;20188;-68
2024/01/07 11:08:52;;;;;;;1.07;0.87;;;4.30;82.20;;;;;;6285047;28;20224;-68
2024/01/07 11:11:54;;;;;;;0.90;0.90;;;4.30;81.00;;;;;;6291665;28;20193;-68
2024/01/07 11:14:56;;;;;;;1.27;1.17;;;4.30;82.80;;;;;;6264020;28;20224;-67
2024/01/07 11:17:57;;;;;;;1.10;1.00;;;4.30;85.20;;;;;;6270321;28;20206;-68
2024/01/07 11:21:01;;;;;;;1.77;1.20;;;4.40;82.70;;;;;;6268266;28;20213;-69
2024/01/07 11:24:02;;;;;;;1.17;0.80;;;4.30;82.70;;;;;;6285033;28;20186;-69
2024/01/07 11:27:03;;;;;;;1.70;1.20;;;4.40;80.70;;;;;;6264417;28;20204;-69
2024/01/07 11:30:17;;;;;;;1.10;1.00;;;4.40;81.60;;;;;;6277883;28;20237;-68
2024/01/07 11:33:18;;;;;;;1.00;0.90;;;4.50;80.30;;;;;;6304968;28;20190;-69
2024/01/07 11:36:19;;;;;;;1.03;0.87;;;4.50;77.80;;;;;;6274259;28;20245;-69
2024/01/07 11:39:20;;;;;;;0.83;0.70;;;4.50;79.30;;;;;;6274679;28;20189;-69
2024/01/07 11:42:22;;;;;;;1.07;0.97;;;4.50;80.00;;;;;;6284173;28;20192;-69
2024/01/07 11:45:23;;;;;;;1.83;1.20;;;4.60;81.10;;;;;;6296640;28;20183;-68
2024/01/07 11:48:23;;;;;;;0.97;0.93;;;4.70;78.00;;;;;;6266767;28;20216;-69
2024/01/07 11:51:30;;;;;;;1.83;0.90;;;4.70;77.50;;;;;;6282033;28;20192;-69
2024/01/07 11:54:31;;;;;;;1.13;1.00;;;4.70;76.10;;;;;;6296573;28;20196;-69
2024/01/07 11:57:32;;;;;;;0.97;0.93;;;4.70;77.50;;;;;;6296335;28;20237;-69
2024/01/07 12:00:36;;;;;;;1.40;1.00;;;4.80;78.80;;;;;;6269316;28;20196;-69
2024/01/07 12:03:37;;;;;;;1.10;0.87;;;4.90;78.50;;;;;;6295462;28;20214;-69
2024/01/07 12:06:39;;;;;;;1.23;1.03;;;4.90;75.50;;;;;;6296346;28;20243;-68
2024/01/07 12:09:39;;;;;;;2.00;1.00;;;4.90;76.60;;;;;;6282971;28;20195;-67
2024/01/07 12:12:41;;;;;;;0.93;0.80;;;4.90;77.10;;;;;;6267354;28;20193;-67
2024/01/07 12:15:43;;;;;;;1.07;0.90;;;4.90;76.80;;;;;;6271784;28;20208;-68
2024/01/07 12:18:44;;;;;;;0.80;0.80;;;4.90;79.60;;;;;;6284856;28;20295;-68
2024/01/07 12:21:47;;;;;;;1.43;1.03;;;4.90;79.10;;;;;;6285368;28;20201;-68
2024/01/07 12:25:00;;;;;;;0.80;0.80;;;4.90;78.30;;;;;;6283412;28;20185;-68
2024/01/07 12:28:02;;;;;;;1.37;1.13;;;5.00;76.70;;;;;;6279553;28;20213;-68
2024/01/07 12:31:04;;;;;;;1.50;1.00;;;5.00;74.60;;;;;;6262796;28;20190;-68
2024/01/07 12:34:05;;;;;;;2.33;1.00;;;5.00;74.40;;;;;;6292124;28;20192;-68
2024/01/07 12:37:06;;;;;;;0.87;0.87;;;5.00;77.10;;;;;;6264669;28;20246;-68
2024/01/07 12:40:09;;;;;;;1.17;1.10;;;5.00;74.80;;;;;;6280843;28;20212;-68
2024/01/07 12:43:10;;;;;;;1.40;1.10;;;4.90;76.30;;;;;;6288173;28;20193;-68
2024/01/07 12:46:10;;;;;;;2.00;1.20;;;5.00;73.10;;;;;;6281115;28;20192;-68
2024/01/07 12:49:11;;;;;;;1.40;1.00;;;4.90;74.50;;;;;;6269657;28;20192;-69
2024/01/07 12:52:12;;;;;;;0.93;0.90;;;4.90;73.70;;;;;;6265686;28;20216;-68
2024/01/07 12:55:12;;;;;;;1.13;1.00;;;5.00;75.20;;;;;;6268903;28;20195;-69
2024/01/07 12:58:13;;;;;;;1.40;1.30;;;5.00;74.80;;;;;;6272033;28;20287;-68
2024/01/07 13:01:14;;;;;;;1.50;1.40;;;5.00;73.70;;;;;;6277456;28;20189;-68
2024/01/07 13:04:15;;;;;;;4.30;3.40;;;5.00;72.50;;;;;;6270046;28;20211;-67
2024/01/07 13:07:16;;;;;;;1.77;1.07;;;5.00;72.10;;;;;;6262358;28;20218;-69
2024/01/07 13:10:16;;;;;;;1.20;1.10;;;5.00;75.00;;;;;;6278572;28;20193;-68
2024/01/07 13:13:17;;;;;;;1.20;0.93;;;5.00;75.90;;;;;;6280681;28;20185;-66
2024/01/07 13:16:18;;;;;;;1.60;1.23;;;5.00;74.00;;;;;;6302500;28;20320;-68
2024/01/07 13:19:20;;;;;;;1.87;1.50;;;4.90;73.90;;;;;;6270026;28;20216;-67
2024/01/07 13:22:21;;;;;;;2.13;1.30;;;5.00;72.90;;;;;;6272270;28;20241;-68
2024/01/07 13:25:21;;;;;;;0.90;0.90;;;5.00;72.50;;;;;;6280563;28;20227;-67
2024/01/07 13:28:22;;;;;;;1.07;0.97;;;4.90;72.70;;;;;;6260267;28;20228;-67
2024/01/07 13:31:23;;;;;;;1.03;0.93;;;4.90;73.70;;;;;;6266728;28;20182;-67
2024/01/07 13:34:24;;;;;;;1.57;1.20;;;4.90;74.40;;;;;;6277212;28;20203;-67
2024/01/07 13:37:24;;;;;;;1.00;0.90;;;4.90;78.30;;;;;;6266222;28;20537;-67
2024/01/07 13:40:25;;;;;;;1.33;1.10;;;5.00;73.60;;;;;;6252630;28;20188;-67
2024/01/07 13:43:29;;;;;;;1.00;0.90;;;5.00;72.40;;;;;;6274991;28;20222;-67
2024/01/07 13:46:29;;;;;;;1.00;0.90;;;5.00;75.00;;;;;;6281577;28;20212;-67
2024/01/07 13:49:30;;;;;;;0.93;0.83;;;4.90;76.60;;;;;;6270679;28;20237;-67
2024/01/07 13:52:31;;;;;;;1.37;0.90;;;4.90;73.00;;;;;;6262448;28;20200;-68
2024/01/07 13:55:31;;;;;;;0.93;0.83;;;4.90;73.90;;;;;;6263267;28;20188;-67
2024/01/07 13:58:32;;;;;;;1.30;1.00;;;4.90;74.30;;;;;;6270674;28;20236;-68
2024/01/07 14:01:33;;;;;;;0.90;0.90;;;4.90;74.70;;;;;;6273383;28;20205;-67
2024/01/07 14:04:34;;;;;;;1.10;0.90;;;4.90;78.30;;;;;;6285904;28;20198;-67
2024/01/07 14:07:34;;;;;;;2.77;0.70;;;4.90;72.50;;;;;;6269447;28;20230;-67
2024/01/07 14:10:36;;;;;;;0.63;0.63;;;4.90;74.30;;;;;;6283742;28;20735;-67
2024/01/07 14:13:37;;;;;;;0.70;0.70;;;4.90;73.20;;;;;;6277328;28;20185;-67
2024/01/07 14:16:40;;;;;;;1.30;1.20;;;4.80;74.20;;;;;;6280354;28;20204;-67
2024/01/07 14:19:41;;;;;;;1.43;1.20;;;4.80;77.80;;;;;;6272924;28;20197;-67
2024/01/07 14:22:42;;;;;;;1.30;1.00;;;4.80;77.50;;;;;;6277324;28;20240;-67
2024/01/07 14:25:43;;;;;;;1.03;0.97;;;4.90;78.20;;;;;;6272373;28;20207;-67
2024/01/07 14:28:43;;;;;;;2.57;1.30;;;4.90;74.70;;;;;;6277794;28;20287;-67
2024/01/07 14:31:45;;;;;;;1.30;1.10;;;4.90;71.10;;;;;;6267670;28;20228;-67
2024/01/07 14:34:46;;;;;;;1.20;1.00;;;4.90;73.30;;;;;;6289510;28;20193;-67
2024/01/07 14:37:46;;;;;;;1.30;1.00;;;4.70;79.70;;;;;;6288489;28;20208;-67
2024/01/07 14:40:48;;;;;;;1.03;0.90;;;4.70;74.50;;;;;;6263986;28;20223;-67
2024/01/07 14:43:49;;;;;;;0.83;0.80;;;4.80;70.70;;;;;;6274142;28;20288;-67
2024/01/07 14:46:50;;;;;;;1.50;1.17;;;4.80;72.40;;;;;;6265871;28;20222;-67
2024/01/07 14:49:50;;;;;;;1.07;0.97;;;4.70;73.70;;;;;;6281661;28;20197;-67
2024/01/07 14:52:51;;;;;;;0.97;0.90;;;4.60;71.90;;;;;;6262201;28;20192;-67
2024/01/07 14:55:52;;;;;;;1.00;0.90;;;4.60;71.50;;;;;;6286505;28;20215;-67
2024/01/07 14:58:52;;;;;;;1.00;0.90;;;4.60;72.50;;;;;;6268996;28;20240;-67
2024/01/07 15:01:53;;;;;;;0.70;0.70;;;;;;;;;;6284468;28;20245;-67
2024/01/07 15:04:55;;;;;;;1.10;0.97;;;;;;;;;;6290478;28;20191;-67
2024/01/07 15:07:56;;;;;;;1.20;0.93;;;;;;;;;;6280401;28;20262;-67
2024/01/07 15:10:57;;;;;;;0.83;0.83;;;;;;;;;;6291086;28;20191;-67
2024/01/07 15:13:58;;;;;;;0.90;0.90;;;;;;;;;;6300392;28;20192;-67
2024/01/07 15:16:59;;;;;;;0.80;0.80;;;;;;;;;;6289726;28;20192;-67
2024/01/07 15:20:01;;;;;;;0.60;0.60;;;;;;;;;;6307549;28;20188;-67
2024/01/07 15:23:02;;;;;;;1.00;0.90;;;;;;;;;;6286682;28;20196;-67
2024/01/07 15:26:03;;;;;;;1.10;0.90;;;;;;;;;;6303267;28;20193;-67
2024/01/07 15:29:05;;;;;;;0.60;0.60;;;;;;;;;;6288865;28;20216;-68
2024/01/07 15:32:06;;;;;;;0.70;0.70;;;;;;;;;;6288451;28;20182;-67
2024/01/07 15:35:08;;;;;;;0.70;0.70;;;;;;;;;;6275077;28;20189;-67
2024/01/07 15:38:10;;;;;;;0.70;0.70;;;;;;;;;;6299240;28;20193;-61
2024/01/07 15:41:11;;;;;;;1.10;0.90;;;;;;;;;;6300847;28;20197;-61
2024/01/07 15:44:12;;;;;;;0.90;0.80;;;;;;;;;;6283759;28;20192;-61
2024/01/07 15:47:13;;;;;;;1.37;1.00;;;;;;;;;;6283635;28;20219;-61
2024/01/07 15:50:14;;;;;;;0.80;0.80;;;;;;;;;;6283917;28;20184;-67
2024/01/07 15:53:15;;;;;;;1.00;0.83;;;;;;;;;;6298360;28;20193;-66
2024/01/07 15:56:19;;;;;;;0.70;0.70;;;;;;;;;;6277637;28;20189;-60
2024/01/07 15:59:20;;;;;;;0.87;0.70;;;;;;;;;;6287337;28;20260;-64
2024/01/07 16:02:21;;;;;;;1.17;0.93;;;;;;;;;;6292152;28;20199;-63
2024/01/07 16:05:22;;;;;;;1.20;0.73;;;;;;;;;;6287988;28;20188;-63
2024/01/07 16:08:26;;;;;;;3.97;1.00;;;;;;;;;;6295464;28;20220;-63
2024/01/07 16:11:27;;;;;;;2.57;0.93;;;;;;;;;;6283800;28;20181;-64
2024/01/07 16:14:32;;;;;;;1.03;0.90;;;;;;;;;;6301702;28;20195;-67
2024/01/07 16:17:33;;;;;;;1.20;0.90;;;;;;;;;;6287157;28;20193;-68
2024/01/07 16:20:34;;;;;;;1.93;1.07;;;;;;;;;;6277455;28;20234;-66
2024/01/07 16:23:35;;;;;;;0.83;0.70;;;;;;;;;;6279210;28;20291;-62
2024/01/07 16:26:36;;;;;;;0.80;0.80;;;;;;;;;;6282036;28;20212;-63
2024/01/07 16:29:38;;;;;;;1.50;0.97;;;;;;;;;;6287322;28;20207;-63
2024/01/07 16:32:58;;;;;;;1.00;0.90;;;;;;;;;;6304317;28;20185;-63
2024/01/07 16:35:59;;;;;;;0.87;0.77;;;;;;;;;;6297098;28;20238;-63
2024/01/07 16:39:02;;;;;;;0.83;0.80;;;;;;;;;;6293019;28;20224;-63
2024/01/07 16:42:03;;;;;;;1.20;1.03;;;;;;;;;;6270478;28;20189;-63
2024/01/07 16:45:05;;;;;;;1.37;1.07;;;;;;;;;;6297276;28;20192;-63
2024/01/07 16:48:06;;;;;;;1.17;0.90;;;;;;;;;;6289629;28;20344;-63
2024/01/07 16:51:12;;;;;;;1.17;0.97;;;;;;;;;;6288436;28;20282;-63
2024/01/07 16:54:13;;;;;;;1.23;1.13;;;;;;;;;;6285362;28;20193;-63
2024/01/07 16:57:14;;;;;;;1.00;0.90;;;;;;;;;;6290116;28;20608;-64
2024/01/07 17:00:15;;;;;;;2.23;1.43;;;;;;;;;;6287430;28;20192;-64
2024/01/07 17:03:16;;;;;;;2.07;1.50;;;;;;;;;;6303534;28;20192;-64
2024/01/07 17:06:17;;;;;;;2.53;1.50;;;;;;;;;;6283640;28;20197;-64
2024/01/07 17:09:18;;;;;;;2.37;1.40;;;;;;;;;;6282201;28;20192;-64
2024/01/07 17:12:19;;;;;;;1.90;1.33;;;;;;;;;;6294139;28;20197;-64
2024/01/07 17:15:20;;;;;;;3.17;1.57;;;;;;;;;;6300631;28;20193;-64